createdAt,value
2022-08-22T00:00:20.895Z,26.70
2022-08-22T00:03:08.203Z,27.60
2022-08-22T00:03:11.472Z,28.40
2022-08-22T00:03:22.420Z,26.70
2022-08-22T00:06:07.725Z,26.70
2022-08-22T00:08:46.286Z,26.70
2022-08-22T00:11:29.666Z,26.60
2022-08-22T00:14:02.215Z,26.60
2022-08-22T00:16:39.890Z,26.60
2022-08-22T00:19:23.752Z,26.60
2022-08-22T00:22:01.954Z,26.60
2022-08-22T00:24:40.352Z,26.60
2022-08-22T00:27:14.332Z,26.60
2022-08-22T00:29:47.230Z,26.60
2022-08-22T00:32:25.313Z,26.60
2022-08-22T00:34:59.651Z,26.50
2022-08-22T00:37:34.278Z,26.50
2022-08-22T00:40:16.615Z,26.50
2022-08-22T00:43:26.868Z,26.50
2022-08-22T00:46:13.847Z,26.40
2022-08-22T00:49:04.523Z,26.40
2022-08-22T00:51:56.410Z,26.40
2022-08-22T00:54:47.813Z,26.40
2022-08-22T00:57:31.306Z,26.40
2022-08-22T01:00:17.186Z,26.30
2022-08-22T01:03:02.993Z,26.30
2022-08-22T01:05:58.310Z,26.30
2022-08-22T01:08:40.603Z,26.30
2022-08-22T01:11:26.446Z,26.30
2022-08-22T01:14:10.167Z,26.30
2022-08-22T01:17:11.289Z,26.30
2022-08-22T01:20:12.858Z,26.30
2022-08-22T01:23:09.942Z,26.20
2022-08-22T01:26:11.911Z,26.20
2022-08-22T01:29:34.968Z,26.20
2022-08-22T01:32:45.992Z,26.20
2022-08-22T01:35:30.400Z,26.20
2022-08-22T01:38:26.780Z,26.20
2022-08-22T01:41:22.176Z,26.20
2022-08-22T01:44:03.511Z,26.20
2022-08-22T01:46:53.298Z,26.20
2022-08-22T01:49:26.681Z,26.10
2022-08-22T01:52:03.217Z,26.10
2022-08-22T01:54:46.862Z,26.10
2022-08-22T01:57:15.972Z,26.10
2022-08-22T01:59:49.010Z,26.10
2022-08-22T02:02:41.577Z,26.10
2022-08-22T02:05:19.888Z,26.00
2022-08-22T02:07:57.029Z,26.00
2022-08-22T02:10:44.595Z,26.00
2022-08-22T02:13:31.798Z,26.00
2022-08-22T02:16:10.212Z,26.00
2022-08-22T02:18:53.820Z,25.90
2022-08-22T02:21:29.655Z,25.90
2022-08-22T02:24:04.135Z,25.90
2022-08-22T02:26:43.452Z,25.90
2022-08-22T02:29:15.162Z,25.90
2022-08-22T02:31:47.646Z,25.90
2022-08-22T02:34:31.536Z,25.80
2022-08-22T02:37:16.916Z,25.90
2022-08-22T02:39:53.153Z,25.80
2022-08-22T02:42:27.824Z,25.80
2022-08-22T02:45:08.004Z,25.80
2022-08-22T02:47:47.592Z,25.80
2022-08-22T02:50:22.010Z,25.80
2022-08-22T02:52:58.646Z,25.70
2022-08-22T02:55:48.687Z,25.70
2022-08-22T02:58:25.549Z,25.70
2022-08-22T03:01:16.366Z,25.70
2022-08-22T03:03:48.187Z,25.70
2022-08-22T03:06:36.393Z,25.70
2022-08-22T03:09:20.478Z,25.70
2022-08-22T03:11:59.658Z,25.60
2022-08-22T03:14:33.655Z,25.70
2022-08-22T03:17:08.975Z,25.60
2022-08-22T03:19:52.322Z,25.60
2022-08-22T03:22:26.782Z,25.60
2022-08-22T03:25:01.206Z,25.60
2022-08-22T03:27:37.228Z,25.60
2022-08-22T03:30:09.140Z,25.50
2022-08-22T03:32:53.039Z,25.60
2022-08-22T03:35:28.301Z,25.60
2022-08-22T03:38:18.302Z,25.60
2022-08-22T03:41:16.579Z,25.50
2022-08-22T03:44:13.365Z,25.50
2022-08-22T03:47:01.858Z,25.50
2022-08-22T03:49:59.353Z,25.50
2022-08-22T03:53:10.306Z,25.50
2022-08-22T03:56:14.831Z,25.50
2022-08-22T03:59:13.925Z,25.50
2022-08-22T04:02:42.487Z,25.40
2022-08-22T04:05:29.385Z,25.40
2022-08-22T04:08:26.440Z,25.40
2022-08-22T04:11:35.962Z,25.40
2022-08-22T04:14:24.426Z,25.40
2022-08-22T04:17:18.792Z,25.40
2022-08-22T04:20:13.422Z,25.40
2022-08-22T04:23:17.239Z,25.30
2022-08-22T04:25:52.141Z,25.30
2022-08-22T04:28:24.149Z,25.30
2022-08-22T04:30:57.537Z,25.30
2022-08-22T04:33:31.769Z,25.30
2022-08-22T04:36:04.379Z,25.30
2022-08-22T04:38:37.667Z,25.30
2022-08-22T04:41:12.382Z,25.30
2022-08-22T04:43:47.534Z,25.30
2022-08-22T04:46:26.812Z,25.30
2022-08-22T04:49:13.542Z,25.20
2022-08-22T04:51:48.729Z,25.20
2022-08-22T04:54:38.440Z,25.20
2022-08-22T04:57:18.410Z,25.20
2022-08-22T04:59:47.477Z,25.20
2022-08-22T05:02:24.999Z,25.20
2022-08-22T05:05:04.170Z,25.20
2022-08-22T05:07:37.010Z,25.20
2022-08-22T05:10:12.146Z,25.20
2022-08-22T05:12:46.585Z,25.10
2022-08-22T05:15:22.906Z,25.20
2022-08-22T05:17:54.841Z,25.20
2022-08-22T05:20:28.211Z,25.20
2022-08-22T05:23:01.553Z,25.10
2022-08-22T05:25:39.239Z,25.10
2022-08-22T05:28:12.210Z,25.10
2022-08-22T05:30:41.279Z,25.10
2022-08-22T05:33:26.506Z,25.20
2022-08-22T05:36:03.689Z,25.20
2022-08-22T05:38:35.741Z,25.20
2022-08-22T05:41:10.209Z,25.10
2022-08-22T05:43:42.451Z,25.20
2022-08-22T05:46:21.117Z,25.20
2022-08-22T05:48:59.942Z,25.20
2022-08-22T05:51:37.198Z,25.10
2022-08-22T05:54:13.803Z,25.20
2022-08-22T05:56:47.571Z,25.10
2022-08-22T05:59:24.805Z,25.20
2022-08-22T06:02:05.158Z,25.10
2022-08-22T06:04:38.514Z,25.20
2022-08-22T06:07:14.255Z,25.20
2022-08-22T06:10:11.730Z,25.20
2022-08-22T06:12:45.093Z,25.20
2022-08-22T06:15:21.089Z,25.30
2022-08-22T06:17:52.979Z,25.30
2022-08-22T06:20:24.642Z,25.30
2022-08-22T06:23:00.218Z,25.20
2022-08-22T06:25:33.572Z,25.20
2022-08-22T06:28:08.287Z,25.30
2022-08-22T06:30:39.628Z,25.30
2022-08-22T06:33:12.608Z,25.30
2022-08-22T06:36:02.933Z,25.40
2022-08-22T06:38:38.033Z,25.40
2022-08-22T06:41:10.674Z,25.40
2022-08-22T06:43:43.687Z,25.40
2022-08-22T06:46:16.357Z,25.40
2022-08-22T06:48:46.101Z,25.40
2022-08-22T06:51:17.833Z,25.40
2022-08-22T06:53:50.291Z,25.50
2022-08-22T06:56:23.193Z,25.50
2022-08-22T06:58:55.804Z,25.50
2022-08-22T07:01:28.509Z,25.50
2022-08-22T07:04:00.821Z,25.50
2022-08-22T07:06:33.414Z,25.50
2022-08-22T07:09:05.680Z,25.50
2022-08-22T07:11:40.618Z,25.50
2022-08-22T07:14:11.671Z,25.60
2022-08-22T07:16:43.758Z,25.60
2022-08-22T07:19:24.628Z,25.60
2022-08-22T07:21:53.499Z,25.60
2022-08-22T07:24:29.476Z,25.60
2022-08-22T07:27:09.002Z,25.60
2022-08-22T07:29:45.124Z,25.60
2022-08-22T07:32:17.823Z,25.70
2022-08-22T07:35:02.080Z,25.70
2022-08-22T07:37:51.265Z,25.70
2022-08-22T07:40:28.335Z,25.70
2022-08-22T07:43:02.372Z,25.80
2022-08-22T07:45:38.181Z,25.70
2022-08-22T07:48:28.712Z,25.80
2022-08-22T07:51:04.100Z,25.80
2022-08-22T07:53:40.533Z,25.80
2022-08-22T07:56:16.609Z,25.90
2022-08-22T07:58:47.579Z,25.90
2022-08-22T08:01:19.816Z,25.90
2022-08-22T08:03:53.724Z,25.90
2022-08-22T08:06:24.419Z,25.90
2022-08-22T08:08:54.784Z,26.00
2022-08-22T08:11:28.309Z,26.00
2022-08-22T08:14:02.793Z,26.00
2022-08-22T08:16:41.291Z,26.00
2022-08-22T08:19:11.781Z,26.10
2022-08-22T08:21:43.719Z,26.10
2022-08-22T08:24:16.999Z,26.10
2022-08-22T08:27:06.422Z,26.10
2022-08-22T08:29:37.174Z,26.10
2022-08-22T08:32:09.692Z,26.20
2022-08-22T08:34:40.275Z,26.20
2022-08-22T08:37:16.384Z,26.20
2022-08-22T08:39:50.741Z,26.20
2022-08-22T08:43:05.951Z,26.20
2022-08-22T08:45:59.141Z,26.20
2022-08-22T08:49:08.033Z,26.30
2022-08-22T08:52:12.474Z,26.30
2022-08-22T08:55:22.006Z,26.30
2022-08-22T08:58:17.800Z,26.30
2022-08-22T09:01:04.915Z,26.30
2022-08-22T09:04:15.242Z,26.30
2022-08-22T09:07:01.007Z,26.40
2022-08-22T09:09:45.798Z,26.40
2022-08-22T09:12:56.100Z,26.40
2022-08-22T09:16:04.791Z,26.50
2022-08-22T09:19:25.045Z,26.50
2022-08-22T09:22:33.371Z,26.60
2022-08-22T09:25:18.570Z,26.60
2022-08-22T09:27:54.778Z,26.60
2022-08-22T09:30:28.810Z,26.70
2022-08-22T09:33:03.785Z,26.70
2022-08-22T09:35:41.069Z,26.70
2022-08-22T09:38:34.727Z,26.70
2022-08-22T09:41:14.727Z,26.70
2022-08-22T09:43:48.620Z,26.70
2022-08-22T09:46:22.643Z,26.80
2022-08-22T09:49:07.503Z,26.70
2022-08-22T09:51:40.576Z,26.80
2022-08-22T09:54:18.640Z,26.80
2022-08-22T09:57:13.988Z,26.90
2022-08-22T10:00:00.916Z,26.90
2022-08-22T10:02:36.457Z,26.90
2022-08-22T10:05:40.353Z,26.90
2022-08-22T10:08:26.654Z,26.90
2022-08-22T10:11:11.381Z,27.00
2022-08-22T10:14:00.561Z,27.00
2022-08-22T10:16:53.845Z,27.00
2022-08-22T10:19:28.978Z,27.10
2022-08-22T10:22:22.383Z,27.10
2022-08-22T10:25:08.356Z,27.10
2022-08-22T10:27:56.747Z,27.10
2022-08-22T10:30:30.234Z,27.10
2022-08-22T10:33:15.066Z,27.30
2022-08-22T10:35:56.558Z,27.30
2022-08-22T10:38:32.550Z,27.30
2022-08-22T10:41:09.815Z,27.40
2022-08-22T10:43:45.160Z,27.50
2022-08-22T10:46:18.577Z,27.60
2022-08-22T10:48:54.796Z,27.60
2022-08-22T10:51:44.802Z,27.60
2022-08-22T10:54:30.296Z,27.70
2022-08-22T10:57:13.888Z,27.70
2022-08-22T10:59:47.839Z,27.80
2022-08-22T11:02:36.778Z,27.80
2022-08-22T11:05:28.301Z,27.80
2022-08-22T11:08:10.792Z,27.90
2022-08-22T11:10:54.883Z,27.90
2022-08-22T11:13:30.193Z,28.00
2022-08-22T11:16:09.011Z,28.00
2022-08-22T11:19:02.755Z,28.00
2022-08-22T11:21:47.072Z,28.10
2022-08-22T11:24:56.786Z,28.20
2022-08-22T11:27:39.912Z,28.20
2022-08-22T11:30:18.782Z,28.30
2022-08-22T11:33:21.593Z,28.50
2022-08-22T11:36:17.969Z,28.50
2022-08-22T11:39:01.314Z,28.60
2022-08-22T11:41:37.163Z,28.70
2022-08-22T11:44:14.358Z,28.80
2022-08-22T11:46:47.371Z,28.90
2022-08-22T11:49:33.682Z,28.90
2022-08-22T11:52:11.827Z,29.00
2022-08-22T11:55:11.597Z,29.10
2022-08-22T11:57:44.838Z,29.20
2022-08-22T12:00:27.997Z,29.30
2022-08-22T12:03:29.248Z,29.50
2022-08-22T12:06:04.573Z,29.60
2022-08-22T12:09:05.451Z,29.70
2022-08-22T12:11:45.344Z,29.90
2022-08-22T12:14:21.002Z,30.00
2022-08-22T12:17:22.772Z,30.10
2022-08-22T12:20:16.863Z,30.10
2022-08-22T12:23:15.362Z,30.20
2022-08-22T12:25:59.142Z,30.10
2022-08-22T12:28:36.337Z,30.10
2022-08-22T12:31:14.868Z,30.10
2022-08-22T12:33:58.754Z,30.20
2022-08-22T12:37:04.208Z,30.10
2022-08-22T12:39:59.256Z,30.20
2022-08-22T12:42:57.262Z,30.40
2022-08-22T12:45:43.328Z,30.60
2022-08-22T12:48:25.131Z,30.70
2022-08-22T12:51:02.940Z,30.80
2022-08-22T12:54:04.673Z,30.90
2022-08-22T12:56:42.321Z,31.00
2022-08-22T12:59:24.856Z,31.00
2022-08-22T13:01:57.021Z,30.90
2022-08-22T13:04:32.555Z,31.00
2022-08-22T13:07:17.602Z,31.10
2022-08-22T13:09:52.355Z,31.20
2022-08-22T13:12:28.301Z,31.20
2022-08-22T13:15:02.503Z,31.30
2022-08-22T13:17:31.456Z,31.40
2022-08-22T13:20:12.006Z,31.50
2022-08-22T13:22:45.696Z,31.60
2022-08-22T13:25:26.189Z,31.60
2022-08-22T13:27:59.051Z,31.60
2022-08-22T13:30:33.503Z,31.60
2022-08-22T13:33:09.807Z,31.60
2022-08-22T13:35:50.563Z,31.70
2022-08-22T13:38:26.563Z,31.70
2022-08-22T13:40:56.801Z,31.70
2022-08-22T13:43:29.800Z,31.70
2022-08-22T13:46:02.088Z,31.70
2022-08-22T13:48:46.761Z,31.70
2022-08-22T13:51:21.306Z,31.70
2022-08-22T13:54:02.223Z,31.70
2022-08-22T13:56:44.178Z,31.60
2022-08-22T13:59:47.205Z,31.60
2022-08-22T14:02:18.395Z,31.60
2022-08-22T14:04:49.546Z,31.60
2022-08-22T14:07:31.730Z,31.50
2022-08-22T14:10:14.786Z,31.50
2022-08-22T14:13:07.376Z,31.50
2022-08-22T14:15:45.113Z,31.50
2022-08-22T14:18:18.702Z,31.50
2022-08-22T14:20:49.592Z,31.50
2022-08-22T14:23:27.032Z,31.50
2022-08-22T14:25:58.216Z,31.50
2022-08-22T14:28:29.993Z,31.50
2022-08-22T14:31:02.448Z,31.50
2022-08-22T14:33:36.385Z,31.50
2022-08-22T14:36:17.704Z,31.50
2022-08-22T14:38:53.254Z,31.40
2022-08-22T14:41:52.095Z,31.40
2022-08-22T14:44:23.714Z,31.50
2022-08-22T14:46:57.620Z,31.40
2022-08-22T14:49:30.059Z,31.40
2022-08-22T14:52:04.338Z,31.40
2022-08-22T14:54:34.288Z,31.40
2022-08-22T14:57:10.386Z,31.40
2022-08-22T14:59:49.649Z,31.40
2022-08-22T15:02:27.054Z,31.40
2022-08-22T15:04:56.625Z,31.40
2022-08-22T15:07:27.279Z,31.40
2022-08-22T15:10:00.940Z,31.40
2022-08-22T15:12:36.753Z,31.40
2022-08-22T15:15:13.023Z,31.30
2022-08-22T15:17:44.865Z,31.30
2022-08-22T15:20:28.496Z,31.30
2022-08-22T15:23:00.133Z,31.30
2022-08-22T15:25:32.337Z,31.30
2022-08-22T15:28:06.906Z,31.30
2022-08-22T15:30:45.190Z,31.30
2022-08-22T15:33:19.078Z,31.30
2022-08-22T15:35:49.229Z,31.20
2022-08-22T15:38:30.547Z,31.30
2022-08-22T15:41:31.459Z,31.30
2022-08-22T15:44:17.220Z,31.30
2022-08-22T15:47:05.768Z,31.30
2022-08-22T15:49:50.551Z,31.20
2022-08-22T15:52:26.043Z,31.20
2022-08-22T15:55:18.834Z,31.20
2022-08-22T15:58:02.078Z,31.20
2022-08-22T16:00:43.398Z,31.20
2022-08-22T16:03:24.742Z,31.20
2022-08-22T16:05:56.166Z,31.20
2022-08-22T16:08:33.274Z,31.20
2022-08-22T16:11:32.990Z,31.20
2022-08-22T16:14:21.619Z,31.20
2022-08-22T16:16:59.962Z,31.20
2022-08-22T16:19:29.471Z,31.20
2022-08-22T16:22:18.727Z,31.10
2022-08-22T16:25:02.546Z,31.10
2022-08-22T16:27:31.692Z,31.10
2022-08-22T16:30:14.699Z,31.10
2022-08-22T16:32:57.020Z,31.10
2022-08-22T16:36:04.563Z,31.10
2022-08-22T16:38:41.522Z,31.10
2022-08-22T16:41:28.922Z,31.00
2022-08-22T16:44:22.632Z,31.00
2022-08-22T16:46:54.097Z,31.00
2022-08-22T16:49:29.825Z,31.00
2022-08-22T16:52:35.533Z,31.00
2022-08-22T16:55:07.125Z,31.00
2022-08-22T16:57:59.267Z,30.90
2022-08-22T17:00:46.379Z,31.00
2022-08-22T17:03:23.737Z,30.90
2022-08-22T17:06:05.647Z,30.90
2022-08-22T17:08:46.966Z,30.80
2022-08-22T17:11:27.254Z,30.80
2022-08-22T17:14:18.163Z,30.80
2022-08-22T17:16:58.233Z,30.80
2022-08-22T17:19:40.315Z,30.80
2022-08-22T17:22:27.109Z,30.80
2022-08-22T17:25:17.554Z,30.80
2022-08-22T17:27:51.715Z,30.70
2022-08-22T17:30:25.258Z,30.80
2022-08-22T17:33:07.816Z,30.70
2022-08-22T17:35:56.412Z,30.70
2022-08-22T17:38:41.521Z,30.60
2022-08-22T17:41:23.296Z,30.60
2022-08-22T17:44:00.124Z,30.60
2022-08-22T17:46:44.161Z,30.60
2022-08-22T17:49:34.188Z,30.50
2022-08-22T17:52:10.509Z,30.50
2022-08-22T17:54:44.604Z,30.40
2022-08-22T17:57:22.029Z,30.40
2022-08-22T17:59:53.874Z,30.40
2022-08-22T18:02:28.099Z,30.40
2022-08-22T18:05:04.478Z,30.30
2022-08-22T18:07:41.546Z,30.30
2022-08-22T18:10:26.208Z,30.30
2022-08-22T18:13:04.905Z,30.20
2022-08-22T18:15:43.541Z,30.20
2022-08-22T18:18:26.986Z,30.20
2022-08-22T18:21:04.345Z,30.20
2022-08-22T18:23:39.790Z,30.10
2022-08-22T18:26:21.650Z,30.10
2022-08-22T18:28:56.902Z,30.10
2022-08-22T18:31:38.692Z,30.10
2022-08-22T18:34:17.278Z,30.00
2022-08-22T18:36:55.557Z,30.00
2022-08-22T18:39:29.181Z,30.00
2022-08-22T18:42:05.838Z,30.00
2022-08-22T18:44:39.030Z,29.80
2022-08-22T18:47:16.454Z,29.90
2022-08-22T18:49:49.114Z,29.90
2022-08-22T18:52:32.982Z,29.80
2022-08-22T18:55:28.406Z,29.80
2022-08-22T18:58:16.123Z,29.80
2022-08-22T19:00:58.853Z,29.70
2022-08-22T19:03:41.569Z,29.70
2022-08-22T19:06:37.868Z,29.70
2022-08-22T19:09:32.221Z,29.70
2022-08-22T19:12:12.325Z,29.60
2022-08-22T19:15:15.711Z,29.60
2022-08-22T19:18:03.841Z,29.60
2022-08-22T19:20:51.734Z,29.60
2022-08-22T19:23:47.571Z,29.60
2022-08-22T19:26:35.644Z,29.50
2022-08-22T19:29:10.817Z,29.50
2022-08-22T19:31:48.413Z,29.50
2022-08-22T19:34:35.541Z,29.40
2022-08-22T19:37:30.509Z,29.40
2022-08-22T19:40:05.007Z,29.40
2022-08-22T19:42:40.024Z,29.40
2022-08-22T19:45:23.567Z,29.30
2022-08-22T19:48:00.708Z,29.30
2022-08-22T19:50:36.111Z,29.30
2022-08-22T19:53:34.083Z,29.30
2022-08-22T19:56:14.062Z,29.30
2022-08-22T19:59:00.824Z,29.20
2022-08-22T20:01:44.253Z,29.20
2022-08-22T20:04:36.543Z,29.20
2022-08-22T20:07:14.476Z,29.20
2022-08-22T20:09:53.251Z,29.10
2022-08-22T20:12:33.079Z,29.10
2022-08-22T20:15:17.231Z,29.10
2022-08-22T20:18:11.687Z,29.00
2022-08-22T20:20:40.154Z,29.00
2022-08-22T20:23:15.920Z,29.00
2022-08-22T20:25:49.484Z,28.90
2022-08-22T20:28:44.308Z,28.90
2022-08-22T20:31:20.885Z,28.90
2022-08-22T20:33:56.571Z,28.80
2022-08-22T20:36:28.468Z,28.80
2022-08-22T20:39:02.976Z,28.80
2022-08-22T20:41:36.738Z,28.70
2022-08-22T20:44:13.622Z,28.70
2022-08-22T20:46:53.309Z,28.70
2022-08-22T20:49:25.389Z,28.60
2022-08-22T20:51:57.896Z,28.70
2022-08-22T20:54:28.338Z,28.60
2022-08-22T20:57:00.195Z,28.60
2022-08-22T20:59:36.058Z,28.60
2022-08-22T21:02:20.192Z,28.50
2022-08-22T21:04:53.044Z,28.50
2022-08-22T21:07:28.455Z,28.50
2022-08-22T21:10:21.741Z,28.50
2022-08-22T21:13:07.451Z,28.50
2022-08-22T21:15:39.114Z,28.40
2022-08-22T21:18:09.906Z,28.40
2022-08-22T21:20:39.764Z,28.40
2022-08-22T21:23:14.978Z,28.40
2022-08-22T21:25:52.618Z,28.30
2022-08-22T21:28:30.084Z,28.40
2022-08-22T21:30:59.382Z,28.40
2022-08-22T21:33:27.893Z,28.30
2022-08-22T21:35:58.429Z,28.20
2022-08-22T21:38:29.236Z,28.30
2022-08-22T21:41:05.514Z,28.20
2022-08-22T21:43:37.618Z,28.20
2022-08-22T21:46:07.246Z,28.10
2022-08-22T21:48:39.241Z,28.10
2022-08-22T21:51:30.859Z,28.10
2022-08-22T21:54:28.242Z,28.10
2022-08-22T21:56:58.164Z,28.10
2022-08-22T21:59:51.037Z,28.10
2022-08-22T22:02:36.502Z,28.00
2022-08-22T22:05:09.409Z,28.00
2022-08-22T22:07:39.080Z,28.00
2022-08-22T22:10:12.095Z,28.00
2022-08-22T22:12:42.038Z,27.90
2022-08-22T22:15:12.730Z,28.00
2022-08-22T22:17:41.225Z,27.90
2022-08-22T22:20:10.862Z,27.90
2022-08-22T22:22:43.188Z,27.90
2022-08-22T22:25:40.286Z,27.90
2022-08-22T22:28:09.634Z,27.90
2022-08-22T22:30:38.108Z,27.80
2022-08-22T22:33:06.718Z,27.90
2022-08-22T22:35:36.950Z,27.80
2022-08-22T22:38:05.331Z,27.80
2022-08-22T22:40:38.280Z,27.70
2022-08-22T22:43:06.812Z,27.70
2022-08-22T22:45:35.392Z,27.70
2022-08-22T22:48:04.413Z,27.70
2022-08-22T22:50:33.194Z,27.70
2022-08-22T22:53:01.612Z,27.70
2022-08-22T22:55:30.042Z,27.70
2022-08-22T22:58:01.970Z,27.70
2022-08-22T23:00:31.800Z,27.60
2022-08-22T23:03:01.358Z,27.60
2022-08-22T23:05:30.232Z,27.60
2022-08-22T23:07:59.244Z,27.60
2022-08-22T23:10:28.735Z,27.60
2022-08-22T23:12:57.253Z,27.60
2022-08-22T23:15:27.936Z,27.50
2022-08-22T23:17:56.696Z,27.50
2022-08-22T23:20:25.903Z,27.50
2022-08-22T23:22:54.277Z,27.50
2022-08-22T23:25:22.603Z,27.50
2022-08-22T23:27:52.268Z,27.50
2022-08-22T23:30:21.921Z,27.40
2022-08-22T23:32:51.926Z,27.40
2022-08-22T23:35:20.438Z,27.30
2022-08-22T23:37:48.835Z,27.30
2022-08-22T23:40:17.453Z,27.30
2022-08-22T23:42:45.836Z,27.30
2022-08-22T23:45:14.559Z,27.30
2022-08-22T23:47:42.978Z,27.30
2022-08-22T23:50:12.959Z,27.30
2022-08-22T23:52:41.274Z,27.30
2022-08-22T23:55:10.767Z,27.20
2022-08-22T23:57:39.166Z,27.20
